createdAt,value
2018-05-25T00:00:32.971Z,35.27
2018-05-25T00:03:02.196Z,33.50
2018-05-25T00:05:31.447Z,37.37
2018-05-25T00:08:01.450Z,32.03
2018-05-25T00:10:31.436Z,35.83
2018-05-25T00:13:00.654Z,33.90
2018-05-25T00:15:30.632Z,33.97
2018-05-25T00:17:59.822Z,32.83
2018-05-25T00:20:29.054Z,34.60
2018-05-25T00:22:59.053Z,37.40
2018-05-25T00:25:28.399Z,33.93
2018-05-25T00:27:57.744Z,35.17
2018-05-25T00:30:26.969Z,34.03
2018-05-25T00:32:56.311Z,32.47
2018-05-25T00:35:25.728Z,32.97
2018-05-25T00:37:54.932Z,33.93
2018-05-25T00:40:24.300Z,30.03
2018-05-25T00:42:53.521Z,29.57
2018-05-25T00:45:22.725Z,35.93
2018-05-25T00:47:52.060Z,34.13
2018-05-25T00:50:21.376Z,33.93
2018-05-25T00:52:50.581Z,34.67
2018-05-25T00:55:37.695Z,32.13
2018-05-25T00:58:07.682Z,33.03
2018-05-25T01:00:36.896Z,31.30
2018-05-25T01:03:06.125Z,31.87
2018-05-25T01:05:35.345Z,30.73
2018-05-25T01:08:04.556Z,31.90
2018-05-25T01:10:33.801Z,30.83
2018-05-25T01:13:03.802Z,31.43
2018-05-25T01:15:33.022Z,31.80
2018-05-25T01:18:03.012Z,28.10
2018-05-25T01:20:32.376Z,29.10
2018-05-25T01:23:01.609Z,30.53
2018-05-25T01:25:30.829Z,28.60
2018-05-25T01:28:00.875Z,28.83
2018-05-25T01:30:30.245Z,26.80
2018-05-25T01:33:00.448Z,28.83
2018-05-25T01:35:30.425Z,29.70
2018-05-25T01:37:59.666Z,29.37
2018-05-25T01:40:28.872Z,31.00
2018-05-25T01:42:58.917Z,32.20
2018-05-25T01:45:28.226Z,30.10
2018-05-25T01:47:57.478Z,29.97
2018-05-25T01:50:26.717Z,29.10
2018-05-25T01:52:56.141Z,30.47
2018-05-25T01:55:25.506Z,29.53
2018-05-25T01:57:54.745Z,28.00
2018-05-25T02:00:24.089Z,27.87
2018-05-25T02:02:54.115Z,29.60
2018-05-25T02:05:24.089Z,32.60
2018-05-25T02:07:53.326Z,32.70
2018-05-25T02:10:22.618Z,33.20
2018-05-25T02:12:52.829Z,32.13
2018-05-25T02:15:22.068Z,31.60
2018-05-25T02:17:51.280Z,33.30
2018-05-25T02:20:20.505Z,33.73
2018-05-25T02:22:49.789Z,32.93
2018-05-25T02:25:19.017Z,33.00
2018-05-25T02:27:48.253Z,32.63
2018-05-25T02:30:17.479Z,33.47
2018-05-25T02:32:46.693Z,35.57
2018-05-25T02:35:15.941Z,36.33
2018-05-25T02:37:45.906Z,33.20
2018-05-25T02:40:15.141Z,33.50
2018-05-25T02:42:45.118Z,32.63
2018-05-25T02:45:14.578Z,31.70
2018-05-25T02:47:43.823Z,33.07
2018-05-25T02:50:13.037Z,33.97
2018-05-25T02:52:42.292Z,35.53
2018-05-25T02:55:11.529Z,33.67
2018-05-25T02:57:41.538Z,35.00
2018-05-25T03:00:10.784Z,36.33
2018-05-25T03:02:40.050Z,33.87
2018-05-25T03:05:09.273Z,35.17
2018-05-25T03:07:38.535Z,30.67
2018-05-25T03:10:07.801Z,32.90
2018-05-25T03:12:36.998Z,32.53
2018-05-25T03:15:06.361Z,32.17
2018-05-25T03:17:35.839Z,34.27
2018-05-25T03:20:05.026Z,32.43
2018-05-25T03:22:34.257Z,31.20
2018-05-25T03:25:04.233Z,31.67
2018-05-25T03:27:33.473Z,27.50
2018-05-25T03:30:03.467Z,32.93
2018-05-25T03:32:32.704Z,31.00
2018-05-25T03:35:01.995Z,32.43
2018-05-25T03:37:31.349Z,29.80
2018-05-25T03:40:00.552Z,34.03
2018-05-25T03:42:29.978Z,33.73
2018-05-25T03:45:00.025Z,33.20
2018-05-25T03:47:29.269Z,31.93
2018-05-25T03:49:58.530Z,31.23
2018-05-25T03:52:27.766Z,32.23
2018-05-25T03:54:56.993Z,31.37
2018-05-25T03:57:26.320Z,31.20
2018-05-25T04:00:13.346Z,33.20
2018-05-25T04:02:42.684Z,32.50
2018-05-25T04:05:12.685Z,32.10
2018-05-25T04:07:42.087Z,34.97
2018-05-25T04:10:11.378Z,32.60
2018-05-25T04:12:40.689Z,34.30
2018-05-25T04:15:10.707Z,31.83
2018-05-25T04:17:41.754Z,31.50
2018-05-25T04:20:10.988Z,29.70
2018-05-25T04:22:41.048Z,32.17
2018-05-25T04:25:10.329Z,32.43
2018-05-25T04:27:39.561Z,32.90
2018-05-25T04:30:08.831Z,33.70
2018-05-25T04:32:38.079Z,33.60
2018-05-25T04:35:07.323Z,34.57
2018-05-25T04:37:36.711Z,36.93
2018-05-25T04:40:05.969Z,34.80
2018-05-25T04:42:35.200Z,36.60
2018-05-25T04:45:05.302Z,36.47
2018-05-25T04:47:35.379Z,36.67
2018-05-25T04:50:04.817Z,38.10
2018-05-25T04:52:34.841Z,36.87
2018-05-25T04:55:04.837Z,36.90
2018-05-25T04:57:34.086Z,38.07
2018-05-25T05:00:03.331Z,39.30
2018-05-25T05:02:32.554Z,36.50
2018-05-25T05:05:02.600Z,37.03
2018-05-25T05:07:31.911Z,33.80
2018-05-25T05:10:01.205Z,35.07
2018-05-25T05:12:30.414Z,35.37
2018-05-25T05:14:59.648Z,37.20
2018-05-25T05:17:28.919Z,35.27
2018-05-25T05:19:58.153Z,34.33
2018-05-25T05:22:28.207Z,33.60
2018-05-25T05:24:57.528Z,33.63
2018-05-25T05:27:26.889Z,32.53
2018-05-25T05:29:56.851Z,32.77
2018-05-25T05:32:26.880Z,34.83
2018-05-25T05:34:56.138Z,30.60
2018-05-25T05:37:25.375Z,33.43
2018-05-25T05:39:54.577Z,31.40
2018-05-25T05:42:23.848Z,31.30
2018-05-25T05:44:53.056Z,29.53
2018-05-25T05:47:22.278Z,31.47
2018-05-25T05:49:51.520Z,29.40
2018-05-25T05:52:20.740Z,30.50
2018-05-25T05:54:50.382Z,28.83
2018-05-25T05:57:19.605Z,33.33
2018-05-25T05:59:49.662Z,29.13
2018-05-25T06:02:18.996Z,31.87
2018-05-25T06:04:49.731Z,32.20
2018-05-25T06:07:18.953Z,30.53
2018-05-25T06:09:48.946Z,29.93
2018-05-25T06:12:19.695Z,28.97
2018-05-25T06:14:48.969Z,26.00
2018-05-25T06:17:18.203Z,24.33
2018-05-25T06:19:47.441Z,25.67
2018-05-25T06:22:16.693Z,25.13
2018-05-25T06:24:46.798Z,21.73
2018-05-25T06:27:16.023Z,21.23
2018-05-25T06:29:46.035Z,21.57
2018-05-25T06:32:15.988Z,20.77
2018-05-25T06:34:45.308Z,21.50
2018-05-25T06:37:14.541Z,20.40
2018-05-25T06:39:44.540Z,21.17
2018-05-25T06:42:13.741Z,20.37
2018-05-25T06:44:44.697Z,19.10
2018-05-25T06:47:14.077Z,19.00
2018-05-25T06:49:43.295Z,19.70
2018-05-25T06:52:12.570Z,18.03
2018-05-25T06:54:41.779Z,18.37
2018-05-25T06:57:12.023Z,18.03
2018-05-25T06:59:42.003Z,17.73
2018-05-25T07:02:11.200Z,15.87
2018-05-25T07:04:40.416Z,17.17
2018-05-25T07:07:09.636Z,17.43
2018-05-25T07:09:38.881Z,16.50
2018-05-25T07:12:08.081Z,15.03
2018-05-25T07:14:37.299Z,16.83
2018-05-25T07:17:06.647Z,16.87
2018-05-25T07:19:36.039Z,18.33
2018-05-25T07:22:05.311Z,18.07
2018-05-25T07:24:34.505Z,16.23
2018-05-25T07:27:04.501Z,16.43
2018-05-25T07:29:33.773Z,17.90
2018-05-25T07:32:02.955Z,18.17
2018-05-25T07:34:32.185Z,16.40
2018-05-25T07:37:01.439Z,14.63
2018-05-25T07:39:31.407Z,16.70
2018-05-25T07:42:00.642Z,17.30
2018-05-25T07:44:29.886Z,16.83
2018-05-25T07:46:59.174Z,16.60
2018-05-25T07:49:28.660Z,15.13
2018-05-25T07:51:57.875Z,15.47
2018-05-25T07:54:27.141Z,15.47
2018-05-25T07:56:56.290Z,14.30
2018-05-25T07:59:27.052Z,15.17
2018-05-25T08:01:56.356Z,14.93
2018-05-25T08:04:26.352Z,16.90
2018-05-25T08:06:55.551Z,17.43
2018-05-25T08:09:24.829Z,18.37
2018-05-25T08:11:54.082Z,17.53
2018-05-25T08:14:23.482Z,17.40
2018-05-25T08:16:52.673Z,19.93
2018-05-25T08:19:21.884Z,18.87
2018-05-25T08:21:51.187Z,19.70
2018-05-25T08:24:20.437Z,19.37
2018-05-25T08:26:49.672Z,20.20
2018-05-25T08:29:19.653Z,19.90
2018-05-25T08:31:48.897Z,20.37
2018-05-25T08:34:18.117Z,19.67
2018-05-25T08:36:47.341Z,18.13
2018-05-25T08:39:16.569Z,18.67
2018-05-25T08:41:46.613Z,17.13
2018-05-25T08:44:15.846Z,19.20
2018-05-25T08:46:45.098Z,19.00
2018-05-25T08:49:14.346Z,18.47
2018-05-25T08:51:43.538Z,18.03
2018-05-25T08:54:13.573Z,18.30
2018-05-25T08:56:43.570Z,17.77
2018-05-25T08:59:13.069Z,17.13
2018-05-25T09:01:42.322Z,18.30
2018-05-25T09:04:11.556Z,18.73
2018-05-25T09:06:40.817Z,17.37
2018-05-25T09:09:10.836Z,18.40
2018-05-25T09:11:40.091Z,18.10
2018-05-25T09:14:10.818Z,17.60
2018-05-25T09:16:40.032Z,17.70
2018-05-25T09:19:09.319Z,16.60
2018-05-25T09:21:38.650Z,15.93
2018-05-25T09:24:07.806Z,15.00
2018-05-25T09:26:37.017Z,17.20
2018-05-25T09:29:06.249Z,15.77
2018-05-25T09:31:36.581Z,18.10
2018-05-25T09:34:06.055Z,17.47
2018-05-25T09:36:35.261Z,18.17
2018-05-25T09:39:05.299Z,19.30
2018-05-25T09:41:34.674Z,23.97
2018-05-25T09:44:04.860Z,18.43
2018-05-25T09:46:34.070Z,19.93
2018-05-25T09:49:03.399Z,19.33
2018-05-25T09:51:32.717Z,15.87
2018-05-25T09:54:01.920Z,16.63
2018-05-25T09:56:31.189Z,16.50
2018-05-25T09:59:01.181Z,15.83
2018-05-25T10:01:30.417Z,15.83
2018-05-25T10:04:00.521Z,16.50
2018-05-25T10:06:30.582Z,16.27
2018-05-25T10:08:59.813Z,16.10
2018-05-25T10:11:29.228Z,13.90
2018-05-25T10:13:58.462Z,12.43
2018-05-25T10:16:27.713Z,12.27
2018-05-25T10:18:56.957Z,14.40
2018-05-25T10:21:26.201Z,15.97
2018-05-25T10:23:55.429Z,16.97
2018-05-25T10:26:24.709Z,15.57
2018-05-25T10:28:53.958Z,15.67
2018-05-25T10:31:23.308Z,15.53
2018-05-25T10:33:52.540Z,14.87
2018-05-25T10:36:22.618Z,16.83
2018-05-25T10:38:51.811Z,17.73
2018-05-25T10:41:22.163Z,16.73
2018-05-25T10:43:52.137Z,16.70
2018-05-25T10:46:21.415Z,17.57
2018-05-25T10:48:51.354Z,17.30
2018-05-25T10:51:20.605Z,15.83
2018-05-25T10:53:50.625Z,16.90
2018-05-25T10:56:19.866Z,16.00
2018-05-25T10:58:49.199Z,16.00
2018-05-25T11:01:18.427Z,16.27
2018-05-25T11:03:47.706Z,15.30
2018-05-25T11:06:17.017Z,14.20
2018-05-25T11:08:46.288Z,11.73
2018-05-25T11:11:15.594Z,12.30
2018-05-25T11:13:45.049Z,12.80
2018-05-25T11:16:14.298Z,13.93
2018-05-25T11:18:43.537Z,14.80
2018-05-25T11:21:12.762Z,14.10
2018-05-25T11:23:42.022Z,12.97
2018-05-25T11:26:11.187Z,15.30
2018-05-25T11:28:40.455Z,13.37
2018-05-25T11:31:09.693Z,13.90
2018-05-25T11:33:39.688Z,13.20
2018-05-25T11:36:08.898Z,13.47
2018-05-25T11:38:38.109Z,14.50
2018-05-25T11:41:08.197Z,13.33
2018-05-25T11:43:37.425Z,13.63
2018-05-25T11:46:07.417Z,12.43
2018-05-25T11:48:37.625Z,15.47
2018-05-25T11:51:06.852Z,13.13
2018-05-25T11:53:36.946Z,13.90
2018-05-25T11:56:06.153Z,12.90
2018-05-25T11:58:35.485Z,11.93
2018-05-25T12:01:04.759Z,12.10
2018-05-25T12:03:33.990Z,10.70
2018-05-25T12:06:03.231Z,13.00
2018-05-25T12:08:32.574Z,14.10
2018-05-25T12:11:02.559Z,12.93
2018-05-25T12:13:31.869Z,12.63
2018-05-25T12:16:01.083Z,12.83
2018-05-25T12:18:31.102Z,12.13
2018-05-25T12:21:00.301Z,10.63
2018-05-25T12:23:30.301Z,10.50
2018-05-25T12:25:59.633Z,9.93
2018-05-25T12:28:29.616Z,9.00
2018-05-25T12:30:58.844Z,9.70
2018-05-25T12:33:28.840Z,9.87
2018-05-25T12:35:58.000Z,10.40
2018-05-25T12:38:27.312Z,13.00
2018-05-25T12:40:56.553Z,12.20
2018-05-25T12:43:26.487Z,11.13
2018-05-25T12:45:55.760Z,12.90
2018-05-25T12:48:24.945Z,12.33
2018-05-25T12:50:55.728Z,11.93
2018-05-25T12:53:25.185Z,13.17
2018-05-25T12:55:55.271Z,12.03
2018-05-25T12:58:25.411Z,11.73
2018-05-25T13:00:54.653Z,10.80
2018-05-25T13:03:23.869Z,12.37
2018-05-25T13:05:53.173Z,12.00
2018-05-25T13:08:22.508Z,9.80
2018-05-25T13:10:51.708Z,11.17
2018-05-25T13:13:20.925Z,9.60
2018-05-25T13:15:50.156Z,10.63
2018-05-25T13:18:19.402Z,11.93
2018-05-25T13:20:49.378Z,8.57
2018-05-25T13:23:18.615Z,11.00
2018-05-25T13:25:48.637Z,11.60
2018-05-25T13:28:17.895Z,11.97
2018-05-25T13:30:47.150Z,10.10
2018-05-25T13:33:17.137Z,10.90
2018-05-25T13:35:46.396Z,9.87
2018-05-25T13:38:15.648Z,10.13
2018-05-25T13:40:44.838Z,8.90
2018-05-25T13:43:14.842Z,7.80
2018-05-25T13:45:44.173Z,7.90
2018-05-25T13:48:13.609Z,7.33
2018-05-25T13:50:42.822Z,5.70
2018-05-25T13:53:12.121Z,6.20
2018-05-25T13:55:41.529Z,6.40
2018-05-25T13:58:10.773Z,6.17
2018-05-25T14:00:40.023Z,5.73
2018-05-25T14:03:09.254Z,5.90
2018-05-25T14:05:38.452Z,6.17
2018-05-25T14:08:08.498Z,6.40
2018-05-25T14:10:37.749Z,5.80
2018-05-25T14:13:07.050Z,5.90
2018-05-25T14:15:36.241Z,5.70
2018-05-25T14:18:06.245Z,6.13
2018-05-25T14:20:35.470Z,5.70
2018-05-25T14:23:04.754Z,9.33
2018-05-25T14:25:33.999Z,6.40
2018-05-25T14:28:03.230Z,5.90
2018-05-25T14:30:32.476Z,6.00
2018-05-25T14:33:02.475Z,5.97
2018-05-25T14:35:31.997Z,6.20
2018-05-25T14:38:01.143Z,5.93
2018-05-25T14:40:32.088Z,6.07
2018-05-25T14:43:01.358Z,6.40
2018-05-25T14:45:31.281Z,6.40
2018-05-25T14:48:00.512Z,6.07
2018-05-25T14:50:33.134Z,6.20
2018-05-25T14:53:05.324Z,6.87
2018-05-25T14:55:34.603Z,6.03
2018-05-25T14:58:03.810Z,6.93
2018-05-25T15:00:33.033Z,6.40
2018-05-25T15:03:03.478Z,6.17
2018-05-25T15:05:33.620Z,6.00
2018-05-25T15:08:05.105Z,5.83
2018-05-25T15:10:34.357Z,6.43
2018-05-25T15:13:03.753Z,5.63
2018-05-25T15:15:32.980Z,6.00
2018-05-25T15:18:02.997Z,6.03
2018-05-25T15:20:32.228Z,6.27
2018-05-25T15:23:01.484Z,8.10
2018-05-25T15:25:30.683Z,7.43
2018-05-25T15:28:00.693Z,7.17
2018-05-25T15:30:29.958Z,7.43
2018-05-25T15:32:59.922Z,7.97
2018-05-25T15:35:29.898Z,6.60
2018-05-25T15:37:59.133Z,7.03
2018-05-25T15:40:28.351Z,7.53
2018-05-25T15:42:57.560Z,6.80
2018-05-25T15:45:26.781Z,6.60
2018-05-25T15:47:56.019Z,5.67
2018-05-25T15:50:25.271Z,5.27
2018-05-25T15:52:54.495Z,5.80
2018-05-25T15:55:24.829Z,5.60
2018-05-25T15:57:54.175Z,5.77
2018-05-25T16:00:23.738Z,5.87
2018-05-25T16:02:54.137Z,6.20
2018-05-25T16:05:23.345Z,5.60
2018-05-25T16:07:52.613Z,4.83
2018-05-25T16:10:21.816Z,5.67
2018-05-25T16:12:51.110Z,6.47
2018-05-25T16:15:20.327Z,5.20
2018-05-25T16:17:49.550Z,5.93
2018-05-25T16:20:18.850Z,5.17
2018-05-25T16:22:50.010Z,5.30
2018-05-25T16:25:22.926Z,5.40
2018-05-25T16:27:52.190Z,5.30
2018-05-25T16:30:22.180Z,6.97
2018-05-25T16:32:51.617Z,5.07
2018-05-25T16:35:20.875Z,5.63
2018-05-25T16:37:51.205Z,4.77
2018-05-25T16:40:20.449Z,4.70
2018-05-25T16:42:49.641Z,4.47
2018-05-25T16:45:18.891Z,4.60
2018-05-25T16:47:48.113Z,7.20
2018-05-25T16:50:18.139Z,6.10
2018-05-25T16:52:47.371Z,5.83
2018-05-25T16:55:17.349Z,6.70
2018-05-25T16:57:47.364Z,5.20
2018-05-25T17:00:17.392Z,6.70
2018-05-25T17:02:47.374Z,6.60
2018-05-25T17:05:16.596Z,7.10
2018-05-25T17:07:46.573Z,6.90
2018-05-25T17:10:17.629Z,7.67
2018-05-25T17:12:48.596Z,7.23
2018-05-25T17:15:19.837Z,7.13
2018-05-25T17:17:52.792Z,7.87
2018-05-25T17:20:22.092Z,7.83
2018-05-25T17:22:51.310Z,8.50
2018-05-25T17:25:20.551Z,9.00
2018-05-25T17:27:49.812Z,9.60
2018-05-25T17:30:19.081Z,10.40
2018-05-25T17:32:48.279Z,9.90
2018-05-25T17:35:18.430Z,10.70
2018-05-25T17:37:48.396Z,8.60
2018-05-25T17:40:17.737Z,9.83
2018-05-25T17:42:50.097Z,8.80
2018-05-25T17:45:21.147Z,9.00
2018-05-25T17:47:51.174Z,10.50
2018-05-25T17:50:20.452Z,9.87
2018-05-25T17:52:49.803Z,9.07
2018-05-25T17:55:19.068Z,8.30
2018-05-25T17:57:49.107Z,7.87
2018-05-25T18:00:22.323Z,6.80
2018-05-25T18:02:51.706Z,7.80
2018-05-25T18:05:20.951Z,7.67
2018-05-25T18:07:51.676Z,7.53
2018-05-25T18:10:20.928Z,8.17
2018-05-25T18:12:53.944Z,8.57
2018-05-25T18:15:23.183Z,7.47
2018-05-25T18:17:52.397Z,8.63
2018-05-25T18:20:22.424Z,8.37
2018-05-25T18:22:52.454Z,9.83
2018-05-25T18:25:26.281Z,9.77
2018-05-25T18:27:55.573Z,9.07
2018-05-25T18:30:24.786Z,14.17
2018-05-25T18:32:54.032Z,9.33
2018-05-25T18:35:23.353Z,9.43
2018-05-25T18:37:52.592Z,8.43
2018-05-25T18:40:21.806Z,8.63
2018-05-25T18:42:51.025Z,8.73
2018-05-25T18:45:20.990Z,12.10
2018-05-25T18:47:54.741Z,9.03
2018-05-25T18:50:24.721Z,8.60
2018-05-25T18:52:53.965Z,9.47
2018-05-25T18:55:23.970Z,10.93
2018-05-25T18:57:57.700Z,8.73
2018-05-25T19:00:26.922Z,8.63
2018-05-25T19:02:57.634Z,9.70
2018-05-25T19:05:27.097Z,8.37
2018-05-25T19:07:56.622Z,9.77
2018-05-25T19:10:25.841Z,9.80
2018-05-25T19:12:55.165Z,8.00
2018-05-25T19:15:24.405Z,8.73
2018-05-25T19:17:54.436Z,9.27
2018-05-25T19:20:23.667Z,9.50
2018-05-25T19:22:52.915Z,9.87
2018-05-25T19:25:22.185Z,9.73
2018-05-25T19:27:51.417Z,8.53
2018-05-25T19:30:21.436Z,10.27
2018-05-25T19:32:50.679Z,9.47
2018-05-25T19:35:20.544Z,9.30
2018-05-25T19:37:50.533Z,8.87
2018-05-25T19:40:20.445Z,9.70
2018-05-25T19:42:49.659Z,8.87
2018-05-25T19:45:19.091Z,10.87
2018-05-25T19:47:48.321Z,9.97
2018-05-25T19:50:17.569Z,10.80
2018-05-25T19:52:47.563Z,11.03
2018-05-25T19:55:16.826Z,9.10
2018-05-25T19:57:46.026Z,9.90
2018-05-25T20:00:15.257Z,10.53
2018-05-25T20:02:44.445Z,11.40
2018-05-25T20:05:13.764Z,10.50
2018-05-25T20:07:43.069Z,10.43
2018-05-25T20:10:13.100Z,11.37
2018-05-25T20:12:43.123Z,10.97
2018-05-25T20:15:12.358Z,10.90
2018-05-25T20:17:41.579Z,10.53
2018-05-25T20:20:11.177Z,10.47
2018-05-25T20:22:41.077Z,11.20
2018-05-25T20:25:10.320Z,10.27
2018-05-25T20:27:39.615Z,10.67
2018-05-25T20:30:09.609Z,12.63
2018-05-25T20:32:39.648Z,11.00
2018-05-25T20:35:10.147Z,11.23
2018-05-25T20:37:40.066Z,9.67
2018-05-25T20:40:09.310Z,9.47
2018-05-25T20:42:38.564Z,9.90
2018-05-25T20:45:07.801Z,10.13
2018-05-25T20:47:37.790Z,10.93
2018-05-25T20:50:07.018Z,9.73
2018-05-25T20:52:36.392Z,9.47
2018-05-25T20:55:06.424Z,10.90
2018-05-25T20:57:36.465Z,10.50
2018-05-25T21:00:05.670Z,10.43
2018-05-25T21:02:34.877Z,10.87
2018-05-25T21:05:04.100Z,11.20
2018-05-25T21:07:33.349Z,10.67
2018-05-25T21:10:02.561Z,10.63
2018-05-25T21:12:31.831Z,10.30
2018-05-25T21:15:01.795Z,10.97
2018-05-25T21:17:31.034Z,10.77
2018-05-25T21:20:01.050Z,11.30
2018-05-25T21:22:31.078Z,10.43
2018-05-25T21:25:02.065Z,10.90
2018-05-25T21:27:31.289Z,10.60
2018-05-25T21:30:00.566Z,15.03
2018-05-25T21:32:31.782Z,10.00
2018-05-25T21:35:00.990Z,11.50
2018-05-25T21:37:30.234Z,9.87
2018-05-25T21:39:59.494Z,9.93
2018-05-25T21:42:28.717Z,9.87
2018-05-25T21:44:58.043Z,9.90
2018-05-25T21:47:29.057Z,10.17
2018-05-25T21:49:59.240Z,9.50
2018-05-25T21:52:28.607Z,10.23
2018-05-25T21:54:59.314Z,9.67
2018-05-25T21:57:28.613Z,9.60
2018-05-25T21:59:58.137Z,10.40
2018-05-25T22:02:28.869Z,8.57
2018-05-25T22:04:58.183Z,8.30
2018-05-25T22:07:28.180Z,10.37
2018-05-25T22:09:58.216Z,10.80
2018-05-25T22:12:28.196Z,9.60
2018-05-25T22:14:57.453Z,9.77
2018-05-25T22:17:26.673Z,9.60
2018-05-25T22:19:55.895Z,10.57
2018-05-25T22:22:25.096Z,10.17
2018-05-25T22:24:55.141Z,9.03
2018-05-25T22:27:25.169Z,9.70
2018-05-25T22:29:54.507Z,9.70
2018-05-25T22:32:23.766Z,10.20
2018-05-25T22:34:53.000Z,9.53
2018-05-25T22:37:26.116Z,10.70
2018-05-25T22:39:55.451Z,10.60
2018-05-25T22:42:42.353Z,10.50
2018-05-25T22:45:30.093Z,10.80
2018-05-25T22:48:17.129Z,10.43
2018-05-25T22:51:05.882Z,9.37
2018-05-25T22:53:39.879Z,11.23
2018-05-25T22:56:09.143Z,10.60
2018-05-25T22:58:38.415Z,10.40
2018-05-25T23:01:08.371Z,10.90
2018-05-25T23:03:37.647Z,10.10
2018-05-25T23:06:06.883Z,12.30
2018-05-25T23:08:38.547Z,10.23
2018-05-25T23:11:09.209Z,10.90
2018-05-25T23:13:41.466Z,10.30
2018-05-25T23:16:10.725Z,9.40
2018-05-25T23:18:40.774Z,9.87
2018-05-25T23:21:09.994Z,10.17
2018-05-25T23:23:39.184Z,9.67
2018-05-25T23:26:08.443Z,9.63
2018-05-25T23:28:38.580Z,9.87
2018-05-25T23:31:08.558Z,9.83
2018-05-25T23:33:38.549Z,10.73
2018-05-25T23:36:07.810Z,10.27
2018-05-25T23:38:37.012Z,9.47
2018-05-25T23:41:09.127Z,10.30
2018-05-25T23:43:38.448Z,11.17
2018-05-25T23:46:08.427Z,9.57
2018-05-25T23:48:37.696Z,9.93
2018-05-25T23:51:06.981Z,10.77
2018-05-25T23:53:36.220Z,9.47
2018-05-25T23:56:06.233Z,8.70
2018-05-25T23:58:37.336Z,8.90
